Time;durP1;ratioP1;P1;durP2;ratioP2;P2;SDS_P1;SDS_P2;PMS_P1;PMS_P2;Temp;Humidity;BMP_temperature;BMP_pressure;BME280_temperature;BME280_humidity;BME280_pressure;Samples;Min_cycle;Max_cycle;Signal;HPM_P1;HPM_P2
2022/04/19 00:01:19;;;;;;;4.53;4.18;;;;;;;;;;6266365;22;20425;-92
2022/04/19 00:03:45;;;;;;;1.38;0.98;;;;;;;;;;6267025;22;20507;-92
2022/04/19 00:06:11;;;;;;;0.40;0.40;;;;;;;;;;6265475;22;20080;-91
2022/04/19 00:08:37;;;;;;;0.60;0.60;;;;;;;;;;6266635;22;20086;-91
2022/04/19 00:11:04;;;;;;;0.30;0.30;;;;;;;;;;6266233;22;20027;-91
2022/04/19 00:13:30;;;;;;;0.73;0.73;;;;;;;;;;6266711;22;20344;-91
2022/04/19 00:15:57;;;;;;;0.73;0.60;;;;;;;;;;6265385;22;20015;-92
2022/04/19 00:18:25;;;;;;;0.20;0.20;;;;;;;;;;6265032;22;20329;-92
2022/04/19 00:20:51;;;;;;;0.63;0.63;;;;;;;;;;6266112;22;20022;-91
2022/04/19 00:23:17;;;;;;;0.50;0.50;;;;;;;;;;6264932;22;20015;-91
2022/04/19 00:25:44;;;;;;;0.43;0.43;;;;;;;;;;6264915;22;20444;-91
2022/04/19 00:28:11;;;;;;;1.67;1.55;;;;;;;;;;6265742;22;20015;-91
2022/04/19 00:30:37;;;;;;;1.55;1.45;;;;;;;;;;6265271;22;20019;-91
2022/04/19 00:33:04;;;;;;;0.73;0.60;;;;;;;;;;6265203;22;20022;-92
2022/04/19 00:35:30;;;;;;;0.50;0.50;;;;;;;;;;6264210;22;20019;-92
2022/04/19 00:37:57;;;;;;;0.32;0.32;;;;;;;;;;6264368;22;20019;-91
2022/04/19 00:40:26;;;;;;;0.30;0.30;;;;;;;;;;6265492;22;20044;-91
2022/04/19 00:42:55;;;;;;;6.82;6.32;;;;;;;;;;6289085;22;20017;-91
2022/04/19 00:45:24;;;;;;;0.60;0.60;;;;;;;;;;6264242;22;20404;-90
2022/04/19 00:47:51;;;;;;;0.40;0.40;;;;;;;;;;6263498;22;20011;-91
2022/04/19 00:50:17;;;;;;;1.95;1.70;;;;;;;;;;6240045;22;20341;-91
2022/04/19 00:52:44;;;;;;;1.05;0.90;;;;;;;;;;6264112;22;20445;-91
2022/04/19 00:55:27;;;;;;;2.00;1.50;;;;;;;;;;6238568;22;20019;-90
2022/04/19 00:57:53;;;;;;;0.50;0.50;;;;;;;;;;6262917;22;20019;-89
2022/04/19 01:00:21;;;;;;;0.70;0.70;;;;;;;;;;6262666;22;20019;-90
2022/04/19 01:02:47;;;;;;;0.65;0.63;;;;;;;;;;6262147;22;20022;-91
2022/04/19 01:05:16;;;;;;;0.20;0.20;;;;;;;;;;6262966;22;20064;-91
2022/04/19 01:07:46;;;;;;;0.32;0.32;;;;;;;;;;6262751;22;20011;-90
2022/04/19 01:10:12;;;;;;;1.38;1.27;;;;;;;;;;6263499;22;20453;-91
2022/04/19 01:15:22;;;;;;;0.30;0.30;;;;;;;;;;6288232;22;20023;-90
2022/04/19 01:17:49;;;;;;;0.40;0.40;;;;;;;;;;6261894;22;20468;-90
2022/04/19 01:20:15;;;;;;;0.30;0.30;;;;;;;;;;6261900;22;20022;-90
2022/04/19 01:22:42;;;;;;;0.70;0.70;;;;;;;;;;6263364;22;20433;-91
2022/04/19 01:25:08;;;;;;;1.58;1.13;;;;;;;;;;6263340;22;20011;-90
2022/04/19 01:27:35;;;;;;;0.40;0.40;;;;;;;;;;6286741;22;20011;-91
2022/04/19 01:30:03;;;;;;;2.08;1.02;;;;;;;;;;6263144;22;20019;-91
2022/04/19 01:32:29;;;;;;;10.13;5.18;;;;;;;;;;6262839;22;20019;-91
2022/04/19 01:35:12;;;;;;;0.20;0.20;;;;;;;;;;6262701;22;20018;-89
2022/04/19 01:37:40;;;;;;;3.00;1.35;;;;;;;;;;6262219;22;20103;-90
2022/04/19 01:40:16;;;;;;;0.88;0.80;;;;;;;;;;6289163;22;20441;-91
2022/04/19 01:42:44;;;;;;;0.50;0.50;;;;;;;;;;6264226;22;20026;-91
2022/04/19 01:45:10;;;;;;;1.27;1.17;;;;;;;;;;6264282;22;20023;-91
2022/04/19 01:47:39;;;;;;;0.73;0.70;;;;;;;;;;6262693;22;20046;-91
2022/04/19 01:50:09;;;;;;;1.40;1.30;;;;;;;;;;6262389;22;20020;-91
2022/04/19 01:52:35;;;;;;;0.50;0.50;;;;;;;;;;6262784;22;20019;-91
2022/04/19 01:55:01;;;;;;;0.30;0.30;;;;;;;;;;6263675;22;20098;-91
2022/04/19 01:57:30;;;;;;;0.95;0.70;;;;;;;;;;6264580;22;20058;-90
2022/04/19 01:59:56;;;;;;;1.75;1.65;;;;;;;;;;6263510;22;20055;-91
2022/04/19 02:02:23;;;;;;;0.40;0.40;;;;;;;;;;6262238;22;20045;-89
2022/04/19 02:04:53;;;;;;;0.52;0.50;;;;;;;;;;6289159;22;20012;-91
2022/04/19 02:07:19;;;;;;;0.60;0.60;;;;;;;;;;6264104;22;20077;-90
2022/04/19 02:09:48;;;;;;;1.63;1.42;;;;;;;;;;6263700;22;20042;-91
2022/04/19 02:12:15;;;;;;;1.08;0.88;;;;;;;;;;6263461;22;20026;-92
2022/04/19 02:14:45;;;;;;;0.93;0.90;;;;;;;;;;6289822;22;20015;-90
2022/04/19 02:17:15;;;;;;;0.70;0.70;;;;;;;;;;6288553;22;20063;-91
2022/04/19 02:19:41;;;;;;;0.55;0.55;;;;;;;;;;6263546;22;20076;-90
2022/04/19 02:22:09;;;;;;;1.10;0.73;;;;;;;;;;6264621;22;20063;-89
2022/04/19 02:24:36;;;;;;;2.30;1.10;;;;;;;;;;6263754;22;20016;-91
2022/04/19 02:27:03;;;;;;;0.50;0.50;;;;;;;;;;6262650;22;20093;-90
2022/04/19 02:29:29;;;;;;;1.27;0.90;;;;;;;;;;6263763;22;20015;-90
2022/04/19 02:31:55;;;;;;;2.42;1.85;;;;;;;;;;6262874;22;20018;-90
2022/04/19 02:34:21;;;;;;;5.78;1.42;;;;;;;;;;6237583;22;20011;-89
2022/04/19 02:36:47;;;;;;;1.42;0.80;;;;;;;;;;6262930;22;20011;-90
2022/04/19 02:39:13;;;;;;;5.93;2.75;;;;;;;;;;6263043;22;20072;-90
2022/04/19 02:41:39;;;;;;;1.00;0.93;;;;;;;;;;6263153;22;20098;-91
2022/04/19 02:44:08;;;;;;;1.20;1.10;;;;;;;;;;6262591;22;20008;-90
2022/04/19 02:46:35;;;;;;;1.08;0.98;;;;;;;;;;6262917;22;20095;-90
2022/04/19 02:49:04;;;;;;;1.52;1.42;;;;;;;;;;6237150;22;20042;-89
2022/04/19 02:51:31;;;;;;;19.17;3.65;;;;;;;;;;6238186;22;20022;-87
2022/04/19 02:53:57;;;;;;;0.70;0.70;;;;;;;;;;6262139;22;20068;-91
2022/04/19 02:56:24;;;;;;;1.70;1.60;;;;;;;;;;6263025;22;20026;-88
2022/04/19 02:58:50;;;;;;;3.45;2.63;;;;;;;;;;6262723;22;20011;-90
2022/04/19 03:01:16;;;;;;;1.55;0.95;;;;;;;;;;6264799;22;20015;-91
2022/04/19 03:03:43;;;;;;;1.33;1.23;;;;;;;;;;6264225;22;20011;-89
2022/04/19 03:06:09;;;;;;;0.68;0.68;;;;;;;;;;6263151;22;20015;-89
2022/04/19 03:08:35;;;;;;;0.30;0.30;;;;;;;;;;6263562;22;20433;-90
2022/04/19 03:11:02;;;;;;;0.47;0.47;;;;;;;;;;6262760;22;20023;-90
2022/04/19 03:13:28;;;;;;;10.77;9.40;;;;;;;;;;6263047;22;20022;-90
2022/04/19 03:15:54;;;;;;;0.47;0.47;;;;;;;;;;6262625;22;20045;-90
2022/04/19 03:18:21;;;;;;;0.57;0.57;;;;;;;;;;6288724;22;20517;-90
2022/04/19 03:20:47;;;;;;;0.52;0.50;;;;;;;;;;6263283;22;20497;-90
2022/04/19 03:28:48;;;;;;;0.30;0.30;;;;;;;;;;6288493;22;19934;-90
2022/04/19 03:31:15;;;;;;;0.30;0.30;;;;;;;;;;6263662;22;20066;-89
2022/04/19 03:33:41;;;;;;;3.08;2.85;;;;;;;;;;6262686;22;20043;-90
2022/04/19 03:36:08;;;;;;;0.73;0.73;;;;;;;;;;6262794;22;20098;-90
2022/04/19 03:38:37;;;;;;;0.88;0.80;;;;;;;;;;6261585;22;20015;-89
2022/04/19 03:41:03;;;;;;;3.17;2.88;;;;;;;;;;6262269;22;20022;-89
2022/04/19 03:43:32;;;;;;;0.32;0.32;;;;;;;;;;6262743;22;20019;-90
2022/04/19 03:45:58;;;;;;;1.55;1.45;;;;;;;;;;6262297;22;20018;-89
2022/04/19 03:48:24;;;;;;;1.95;1.80;;;;;;;;;;6261942;22;20449;-90
2022/04/19 03:50:52;;;;;;;0.60;0.60;;;;;;;;;;6262303;22;20053;-90
2022/04/19 03:53:18;;;;;;;0.50;0.50;;;;;;;;;;6262908;22;20011;-90
2022/04/19 03:55:45;;;;;;;2.45;2.15;;;;;;;;;;6262161;22;20072;-89
2022/04/19 03:58:12;;;;;;;0.68;0.68;;;;;;;;;;6263252;22;20023;-90
2022/04/19 04:00:38;;;;;;;0.47;0.47;;;;;;;;;;6237359;22;20018;-90
2022/04/19 04:03:06;;;;;;;1.75;1.10;;;;;;;;;;6312909;22;20142;-88
2022/04/19 04:05:32;;;;;;;0.50;0.50;;;;;;;;;;6260958;22;20011;-90
2022/04/19 04:07:58;;;;;;;2.50;1.83;;;;;;;;;;6262514;22;20039;-89
2022/04/19 04:10:25;;;;;;;0.60;0.60;;;;;;;;;;6262748;22;20054;-89
2022/04/19 04:12:51;;;;;;;0.40;0.40;;;;;;;;;;6263239;22;20101;-88
2022/04/19 04:15:17;;;;;;;0.43;0.43;;;;;;;;;;6263632;22;20033;-89
2022/04/19 04:17:43;;;;;;;0.60;0.60;;;;;;;;;;6263666;22;20023;-89
2022/04/19 04:20:11;;;;;;;0.55;0.55;;;;;;;;;;6263112;22;20018;-88
2022/04/19 04:22:37;;;;;;;1.38;1.25;;;;;;;;;;6263608;22;20022;-89
2022/04/19 04:25:03;;;;;;;0.57;0.57;;;;;;;;;;6263008;22;20011;-89
2022/04/19 04:27:30;;;;;;;4.97;0.95;;;;;;;;;;6263235;22;20099;-90
2022/04/19 04:29:56;;;;;;;2.05;1.23;;;;;;;;;;6289225;22;20015;-90
2022/04/19 04:32:22;;;;;;;0.50;0.50;;;;;;;;;;6263393;22;20076;-90
2022/04/19 04:34:48;;;;;;;1.88;1.30;;;;;;;;;;6262782;22;20038;-90
2022/04/19 04:37:22;;;;;;;0.63;0.63;;;;;;;;;;6263197;22;20076;-90
2022/04/19 04:39:49;;;;;;;0.32;0.32;;;;;;;;;;6263266;22;20344;-89
2022/04/19 04:42:16;;;;;;;0.40;0.40;;;;;;;;;;6263150;22;20018;-89
2022/04/19 04:44:43;;;;;;;1.65;1.05;;;;;;;;;;6237296;22;20042;-88
2022/04/19 04:49:57;;;;;;;0.40;0.40;;;;;;;;;;6289021;22;20029;-90
2022/04/19 04:52:33;;;;;;;5.13;2.97;;;;;;;;;;6265619;22;20066;-90
2022/04/19 04:54:59;;;;;;;2.75;1.95;;;;;;;;;;6263748;22;20015;-89
2022/04/19 04:57:25;;;;;;;0.50;0.50;;;;;;;;;;6263372;22;20019;-91
2022/04/19 04:59:51;;;;;;;0.82;0.82;;;;;;;;;;6263746;22;20011;-90
2022/04/19 05:02:17;;;;;;;1.40;1.15;;;;;;;;;;6263103;22;20018;-91
2022/04/19 05:04:43;;;;;;;1.00;0.93;;;;;;;;;;6263050;22;20015;-90
2022/04/19 05:07:09;;;;;;;1.48;1.27;;;;;;;;;;6263345;22;20015;-90
2022/04/19 05:09:35;;;;;;;1.77;1.33;;;;;;;;;;6288182;22;20100;-92
2022/04/19 05:12:01;;;;;;;0.85;0.85;;;;;;;;;;6263810;22;20018;-91
2022/04/19 05:14:27;;;;;;;0.55;0.55;;;;;;;;;;6263311;22;20383;-90
2022/04/19 05:16:53;;;;;;;0.50;0.50;;;;;;;;;;6262081;22;20016;-90
2022/04/19 05:19:19;;;;;;;0.85;0.85;;;;;;;;;;6262974;22;20045;-90
2022/04/19 05:21:46;;;;;;;2.75;1.85;;;;;;;;;;6262868;22;20065;-90
2022/04/19 05:24:12;;;;;;;1.13;0.88;;;;;;;;;;6263101;22;20684;-90
2022/04/19 05:26:38;;;;;;;3.83;2.15;;;;;;;;;;6263460;22;20019;-91
2022/04/19 05:29:04;;;;;;;16.88;4.43;;;;;;;;;;6263401;22;20015;-91
2022/04/19 05:31:30;;;;;;;0.80;0.73;;;;;;;;;;6263256;22;20014;-91
2022/04/19 05:33:56;;;;;;;0.30;0.30;;;;;;;;;;6263191;22;20057;-90
2022/04/19 05:36:23;;;;;;;0.43;0.43;;;;;;;;;;6262295;22;20037;-89
2022/04/19 05:38:52;;;;;;;0.70;0.70;;;;;;;;;;6263272;22;20025;-90
2022/04/19 05:41:21;;;;;;;1.98;1.67;;;;;;;;;;6238258;22;20104;-90
2022/04/19 05:43:48;;;;;;;1.20;0.98;;;;;;;;;;6262691;22;20053;-90
2022/04/19 05:46:17;;;;;;;1.85;1.63;;;;;;;;;;6261949;22;20047;-90
2022/04/19 05:48:43;;;;;;;0.50;0.50;;;;;;;;;;6262808;22;20011;-90
2022/04/19 05:51:10;;;;;;;0.50;0.50;;;;;;;;;;6262704;22;20016;-91
2022/04/19 05:53:36;;;;;;;0.75;0.75;;;;;;;;;;6262082;22;20020;-90
2022/04/19 05:56:02;;;;;;;0.35;0.35;;;;;;;;;;6237644;22;20026;-90
2022/04/19 05:58:28;;;;;;;0.80;0.73;;;;;;;;;;6260292;22;20015;-88
2022/04/19 06:00:54;;;;;;;0.32;0.32;;;;;;;;;;6260588;22;20012;-93
2022/04/19 06:06:06;;;;;;;1.58;1.27;;;;;;;;;;6288188;22;20019;-90
2022/04/19 06:08:33;;;;;;;1.67;1.58;;;;;;;;;;6284272;22;20015;-87
2022/04/19 06:10:59;;;;;;;1.55;0.88;;;;;;;;;;6256670;22;20058;-88
2022/04/19 06:13:25;;;;;;;2.35;1.90;;;;;;;;;;6257401;22;20015;-86
2022/04/19 06:15:51;;;;;;;16.88;2.45;;;;;;;;;;6282035;22;20019;-88
2022/04/19 06:18:17;;;;;;;4.32;2.33;;;;;;;;;;6256694;22;20015;-89
2022/04/19 06:20:43;;;;;;;1.25;1.15;;;;;;;;;;6257877;22;20045;-90
2022/04/19 06:23:11;;;;;;;3.05;2.22;;;;;;;;;;6289265;22;20018;-93
2022/04/19 06:25:37;;;;;;;1.20;1.10;;;;;;;;;;6266972;22;20015;-90
2022/04/19 06:28:04;;;;;;;0.40;0.40;;;;;;;;;;6266134;22;20023;-91
2022/04/19 06:30:30;;;;;;;0.70;0.60;;;;;;;;;;6264996;22;20016;-92
2022/04/19 06:32:56;;;;;;;0.68;0.65;;;;;;;;;;6265452;22;20077;-89
2022/04/19 06:35:22;;;;;;;0.65;0.65;;;;;;;;;;6263560;22;20017;-89
2022/04/19 06:37:48;;;;;;;0.98;0.82;;;;;;;;;;6265198;22;20019;-90
2022/04/19 06:40:14;;;;;;;2.58;1.45;;;;;;;;;;6264907;22;20023;-91
2022/04/19 06:42:40;;;;;;;1.90;1.52;;;;;;;;;;6261709;22;20022;-89
2022/04/19 06:45:06;;;;;;;1.20;1.10;;;;;;;;;;6263476;22;20349;-88
2022/04/19 06:47:34;;;;;;;1.65;1.05;;;;;;;;;;6261016;22;20099;-88
2022/04/19 06:50:01;;;;;;;2.10;1.27;;;;;;;;;;6262372;22;20027;-88
2022/04/19 06:52:27;;;;;;;1.90;1.15;;;;;;;;;;6260449;22;20065;-88
2022/04/19 06:54:53;;;;;;;1.27;1.05;;;;;;;;;;6262077;22;20015;-90
2022/04/19 06:57:19;;;;;;;0.43;0.43;;;;;;;;;;6265114;22;20016;-90
2022/04/19 06:59:46;;;;;;;2.28;1.17;;;;;;;;;;6264594;22;20016;-89
2022/04/19 07:02:12;;;;;;;1.60;1.35;;;;;;;;;;6263938;22;20018;-90
2022/04/19 07:04:40;;;;;;;3.38;1.65;;;;;;;;;;6261749;22;20011;-90
2022/04/19 07:07:07;;;;;;;3.15;1.67;;;;;;;;;;6258107;22;20047;-87
2022/04/19 07:09:34;;;;;;;4.35;2.28;;;;;;;;;;6259106;22;20011;-87
2022/04/19 07:12:00;;;;;;;1.05;0.82;;;;;;;;;;6256934;22;20015;-87
2022/04/19 07:14:25;;;;;;;2.08;1.02;;;;;;;;;;6257055;22;20065;-86
2022/04/19 07:16:52;;;;;;;1.65;0.90;;;;;;;;;;6257331;22;20050;-88
2022/04/19 07:19:18;;;;;;;0.57;0.57;;;;;;;;;;6258348;22;20502;-87
2022/04/19 07:27:27;;;;;;;1.10;0.55;;;;;;;;;;6217239;22;20019;-85
2022/04/19 07:29:53;;;;;;;0.70;0.70;;;;;;;;;;6259788;22;20098;-87
2022/04/19 07:32:19;;;;;;;0.60;0.60;;;;;;;;;;6284711;22;20019;-86
2022/04/19 07:34:45;;;;;;;3.22;1.80;;;;;;;;;;6285861;22;20025;-88
2022/04/19 07:37:11;;;;;;;0.20;0.20;;;;;;;;;;6260696;22;20456;-90
2022/04/19 07:39:37;;;;;;;1.73;1.30;;;;;;;;;;6260603;22;20011;-89
2022/04/19 07:42:03;;;;;;;0.80;0.60;;;;;;;;;;6261011;22;20064;-85
2022/04/19 07:44:30;;;;;;;2.88;0.77;;;;;;;;;;6259047;22;20018;-88
2022/04/19 07:46:57;;;;;;;0.30;0.30;;;;;;;;;;6258699;22;20065;-87
2022/04/19 07:49:23;;;;;;;0.30;0.30;;;;;;;;;;6261391;22;20050;-88
2022/04/19 07:51:49;;;;;;;0.52;0.52;;;;;;;;;;6260138;22;20019;-89
2022/04/19 07:54:15;;;;;;;1.70;1.33;;;;;;;;;;6260468;22;20069;-89
2022/04/19 07:56:41;;;;;;;1.40;0.98;;;;;;;;;;6256136;22;20023;-85
2022/04/19 07:59:07;;;;;;;1.77;1.00;;;;;;;;;;6256091;22;20090;-84
2022/04/19 08:01:34;;;;;;;1.42;0.63;;;;;;;;;;6254914;22;20019;-85
2022/04/19 08:04:00;;;;;;;1.02;0.70;;;;;;;;;;6255677;22;20011;-88
2022/04/19 08:06:28;;;;;;;2.70;1.55;;;;;;;;;;6256039;22;20026;-87
2022/04/19 08:08:54;;;;;;;4.40;1.63;;;;;;;;;;6256744;22;20034;-86
2022/04/19 08:11:20;;;;;;;1.10;1.00;;;;;;;;;;6256301;22;20011;-86
2022/04/19 08:13:47;;;;;;;5.28;1.33;;;;;;;;;;6254178;22;20506;-85
2022/04/19 08:16:16;;;;;;;2.22;1.70;;;;;;;;;;6260316;22;20019;-88
2022/04/19 08:18:43;;;;;;;4.47;1.80;;;;;;;;;;6286945;22;20101;-89
2022/04/19 08:21:09;;;;;;;0.47;0.47;;;;;;;;;;6287152;22;20011;-88
2022/04/19 08:23:35;;;;;;;0.95;0.77;;;;;;;;;;6262342;22;20109;-88
2022/04/19 08:26:01;;;;;;;2.80;1.00;;;;;;;;;;6262258;22;20030;-89
2022/04/19 08:28:27;;;;;;;1.90;1.17;;;;;;;;;;6262594;22;20019;-90
2022/04/19 08:30:53;;;;;;;2.85;1.75;;;;;;;;;;6263300;22;20019;-89
2022/04/19 08:33:19;;;;;;;3.60;2.03;;;;;;;;;;6263910;22;20039;-89
2022/04/19 08:35:45;;;;;;;3.25;1.92;;;;;;;;;;6261527;22;20041;-86
2022/04/19 08:38:11;;;;;;;2.22;1.48;;;;;;;;;;6260818;22;20512;-88
2022/04/19 08:40:37;;;;;;;0.38;0.38;;;;;;;;;;6263092;22;20066;-89
2022/04/19 08:43:03;;;;;;;2.80;1.10;;;;;;;;;;6261913;22;20015;-90
2022/04/19 08:45:29;;;;;;;1.27;0.82;;;;;;;;;;6257792;22;20097;-87
2022/04/19 08:47:58;;;;;;;1.85;1.08;;;;;;;;;;6257394;22;20345;-88
2022/04/19 08:50:25;;;;;;;1.42;1.33;;;;;;;;;;6256848;22;20019;-88
2022/04/19 08:57:29;;;;;;;1.02;0.65;;;;;;;;;;6259611;22;20030;-89
2022/04/19 08:58:21;;;;;;;5.23;3.00;;;;;;;;;;6285306;22;20030;-89
2022/04/19 09:00:48;;;;;;;3.70;1.30;;;;;;;;;;6285684;22;20261;-89
2022/04/19 09:03:14;;;;;;;2.80;1.23;;;;;;;;;;6262626;22;20011;-88
2022/04/19 09:05:50;;;;;;;1.23;0.77;;;;;;;;;;6260166;22;20437;-89
2022/04/19 09:08:17;;;;;;;1.00;0.60;;;;;;;;;;6261396;22;20464;-90
2022/04/19 09:10:43;;;;;;;1.48;1.13;;;;;;;;;;6263740;22;20019;-92
2022/04/19 09:13:14;;;;;;;0.82;0.65;;;;;;;;;;6264200;22;20022;-90
2022/04/19 09:15:44;;;;;;;1.30;0.50;;;;;;;;;;6237904;22;20019;-90
2022/04/19 09:18:15;;;;;;;0.20;0.20;;;;;;;;;;6261845;22;20026;-89
2022/04/19 09:20:41;;;;;;;3.35;1.52;;;;;;;;;;6261988;22;20015;-89
2022/04/19 09:23:11;;;;;;;0.98;0.82;;;;;;;;;;6263970;22;20016;-92
2022/04/19 09:25:41;;;;;;;1.85;1.27;;;;;;;;;;6269467;22;20060;-94
2022/04/19 09:28:18;;;;;;;0.60;0.50;;;;;;;;;;6268591;22;20023;-93
2022/04/19 09:30:45;;;;;;;1.80;0.95;;;;;;;;;;6268722;22;20019;-93
2022/04/19 09:33:14;;;;;;;3.38;1.20;;;;;;;;;;6267704;22;20020;-92
2022/04/19 09:35:50;;;;;;;0.93;0.57;;;;;;;;;;6265575;22;20023;-91
2022/04/19 09:38:17;;;;;;;0.32;0.30;;;;;;;;;;6266766;22;20050;-93
2022/04/19 09:40:47;;;;;;;1.92;1.10;;;;;;;;;;6259416;22;20064;-89
2022/04/19 09:43:17;;;;;;;1.05;0.85;;;;;;;;;;6260229;22;20019;-88
2022/04/19 09:46:02;;;;;;;3.75;1.95;;;;;;;;;;6256996;22;20019;-86
2022/04/19 09:48:28;;;;;;;2.38;1.45;;;;;;;;;;6254527;22;20018;-86
2022/04/19 09:51:03;;;;;;;0.90;0.38;;;;;;;;;;6254990;22;20098;-85
2022/04/19 09:53:50;;;;;;;1.27;0.75;;;;;;;;;;6254431;22;20015;-87
2022/04/19 09:56:17;;;;;;;0.60;0.60;;;;;;;;;;6255173;22;20433;-85
2022/04/19 09:58:44;;;;;;;4.22;2.08;;;;;;;;;;6256169;22;20023;-88
2022/04/19 10:08:10;;;;;;;1.75;0.73;;;;;;;;;;6257446;22;20098;-87
2022/04/19 10:09:26;;;;;;;3.08;1.48;;;;;;;;;;6282964;22;20579;-89
2022/04/19 10:11:52;;;;;;;1.38;0.88;;;;;;;;;;6259482;22;20026;-87
2022/04/19 10:14:18;;;;;;;1.05;0.90;;;;;;;;;;6261179;22;20345;-89
2022/04/19 10:16:45;;;;;;;0.93;0.75;;;;;;;;;;6262129;22;20015;-86
2022/04/19 10:19:11;;;;;;;6.65;1.08;;;;;;;;;;6237813;22;20022;-90
2022/04/19 10:21:43;;;;;;;3.65;1.30;;;;;;;;;;6289078;22;20023;-90
2022/04/19 10:24:10;;;;;;;2.22;0.93;;;;;;;;;;6260837;22;20011;-89
2022/04/19 10:26:46;;;;;;;4.28;2.00;;;;;;;;;;6260645;22;20019;-86
2022/04/19 10:29:19;;;;;;;0.30;0.30;;;;;;;;;;6258022;22;20498;-88
2022/04/19 10:32:01;;;;;;;0.30;0.20;;;;;;;;;;6258997;22;20023;-88
2022/04/19 10:34:29;;;;;;;1.42;0.90;;;;;;;;;;6254627;22;20022;-87
2022/04/19 10:36:57;;;;;;;3.55;1.90;;;;;;;;;;6256770;22;20038;-87
2022/04/19 10:39:24;;;;;;;0.40;0.35;;;;;;;;;;6259353;22;20068;-90
2022/04/19 10:41:56;;;;;;;1.38;0.77;;;;;;;;;;6262320;22;20019;-91
2022/04/19 10:44:35;;;;;;;1.42;0.88;;;;;;;;;;6289053;22;20346;-89
2022/04/19 10:47:05;;;;;;;0.75;0.50;;;;;;;;;;6265788;22;20015;-89
2022/04/19 10:49:31;;;;;;;0.63;0.35;;;;;;;;;;6266538;22;20015;-90
2022/04/19 10:52:01;;;;;;;0.60;0.47;;;;;;;;;;6265939;22;20019;-90
2022/04/19 10:54:45;;;;;;;1.45;1.30;;;;;;;;;;6266098;22;20019;-90
2022/04/19 11:00:27;;;;;;;0.93;0.70;;;;;;;;;;6237044;22;20018;-90
2022/04/19 11:03:07;;;;;;;1.60;0.88;;;;;;;;;;6266398;22;20017;-89
2022/04/19 11:05:44;;;;;;;0.35;0.35;;;;;;;;;;6264838;22;20057;-90
2022/04/19 11:08:25;;;;;;;0.45;0.28;;;;;;;;;;6266214;22;20047;-90
2022/04/19 11:11:04;;;;;;;0.90;0.68;;;;;;;;;;6267973;22;20015;-89
2022/04/19 11:13:31;;;;;;;6.43;0.45;;;;;;;;;;6258762;22;20045;-87
2022/04/19 11:16:06;;;;;;;0.30;0.30;;;;;;;;;;6263072;22;20072;-90
2022/04/19 11:18:33;;;;;;;0.82;0.63;;;;;;;;;;6264183;22;20030;-89
2022/04/19 11:21:21;;;;;;;0.93;0.47;;;;;;;;;;6266572;22;20064;-90
2022/04/19 11:23:50;;;;;;;0.30;0.30;;;;;;;;;;6266709;22;20038;-93
2022/04/19 11:26:34;;;;;;;1.05;0.60;;;;;;;;;;6270569;22;20449;-94
2022/04/19 11:29:10;;;;;;;0.88;0.40;;;;;;;;;;6271366;22;20016;-94
2022/04/19 11:31:56;;;;;;;0.65;0.43;;;;;;;;;;6271256;22;20069;-94
2022/04/19 11:34:22;;;;;;;2.17;0.38;;;;;;;;;;6245744;22;20050;-91
2022/04/19 11:36:48;;;;;;;0.30;0.30;;;;;;;;;;6267862;22;20047;-92
2022/04/19 11:47:55;;;;;;;0.73;0.40;;;;;;;;;;6294793;22;20023;-93
2022/04/19 11:50:25;;;;;;;1.40;0.43;;;;;;;;;;6270233;22;20016;-96
2022/04/19 11:52:51;;;;;;;0.95;0.52;;;;;;;;;;6271761;22;20041;-95
2022/04/19 11:55:19;;;;;;;0.75;0.38;;;;;;;;;;6270992;22;20019;-94
2022/04/19 11:57:48;;;;;;;0.22;0.20;;;;;;;;;;6271570;22;20015;-95
2022/04/19 12:00:19;;;;;;;2.65;0.90;;;;;;;;;;6269703;22;20043;-92
2022/04/19 12:02:50;;;;;;;1.70;1.08;;;;;;;;;;6269255;22;20024;-92
2022/04/19 12:05:26;;;;;;;0.32;0.32;;;;;;;;;;6241691;22;20028;-90
2022/04/19 12:07:55;;;;;;;0.20;0.20;;;;;;;;;;6270166;22;20021;-93
2022/04/19 12:10:22;;;;;;;1.30;0.80;;;;;;;;;;6267397;22;20341;-92
2022/04/19 12:12:48;;;;;;;1.88;0.73;;;;;;;;;;6268686;22;20377;-91
2022/04/19 12:15:34;;;;;;;1.05;0.50;;;;;;;;;;6265892;22;20019;-89
2022/04/19 12:18:00;;;;;;;0.88;0.40;;;;;;;;;;6267038;22;20019;-89
2022/04/19 12:20:26;;;;;;;1.20;0.28;;;;;;;;;;6267773;22;20098;-91
2022/04/19 12:22:52;;;;;;;1.75;0.85;;;;;;;;;;6269082;22;20019;-92
2022/04/19 12:25:23;;;;;;;1.23;0.55;;;;;;;;;;6268688;22;20383;-91
2022/04/19 12:27:52;;;;;;;0.40;0.40;;;;;;;;;;6267703;22;20015;-91
2022/04/19 12:30:20;;;;;;;0.25;0.25;;;;;;;;;;6267137;22;20068;-91
2022/04/19 12:32:51;;;;;;;2.05;0.70;;;;;;;;;;6269419;22;20019;-92
2022/04/19 12:35:33;;;;;;;1.40;0.77;;;;;;;;;;6271054;22;20019;-91
2022/04/19 12:38:10;;;;;;;0.70;0.43;;;;;;;;;;6272166;22;20030;-94
2022/04/19 12:40:36;;;;;;;0.40;0.20;;;;;;;;;;6293832;22;20027;-90
2022/04/19 12:43:05;;;;;;;0.73;0.20;;;;;;;;;;6267299;22;20019;-94
2022/04/19 12:45:32;;;;;;;0.45;0.30;;;;;;;;;;6250056;22;20015;-91
2022/04/19 12:48:00;;;;;;;1.08;0.32;;;;;;;;;;6263216;22;20019;-91
2022/04/19 12:50:27;;;;;;;0.50;0.40;;;;;;;;;;6268529;22;20015;-94
2022/04/19 12:52:53;;;;;;;2.42;1.10;;;;;;;;;;6245329;22;20023;-94
2022/04/19 12:55:29;;;;;;;0.57;0.35;;;;;;;;;;6271254;22;20015;-94
2022/04/19 12:58:06;;;;;;;0.55;0.50;;;;;;;;;;6269148;22;20015;-88
2022/04/19 13:00:32;;;;;;;0.80;0.55;;;;;;;;;;6255226;22;20098;-85
2022/04/19 13:02:58;;;;;;;2.33;0.98;;;;;;;;;;6255969;22;20526;-88
2022/04/19 13:12:16;;;;;;;0.60;0.50;;;;;;;;;;6259959;22;20007;-91
2022/04/19 13:13:41;;;;;;;0.50;0.40;;;;;;;;;;6292512;22;20027;-90
2022/04/19 13:16:07;;;;;;;0.30;0.30;;;;;;;;;;6267906;22;20026;-92
2022/04/19 13:18:33;;;;;;;0.50;0.30;;;;;;;;;;6268527;22;20019;-91
2022/04/19 13:20:59;;;;;;;1.38;0.43;;;;;;;;;;6268300;22;20023;-92
2022/04/19 13:23:25;;;;;;;3.50;0.68;;;;;;;;;;6266802;22;20046;-93
2022/04/19 13:25:52;;;;;;;0.20;0.20;;;;;;;;;;6270136;22;20016;-92
2022/04/19 13:28:18;;;;;;;0.00;0.00;;;;;;;;;;6269214;22;20039;-92
2022/04/19 13:30:44;;;;;;;0.10;0.10;;;;;;;;;;6267443;22;20076;-93
2022/04/19 13:33:10;;;;;;;0.28;0.25;;;;;;;;;;6268529;22;20015;-90
2022/04/19 13:35:36;;;;;;;0.95;0.75;;;;;;;;;;6266171;22;20030;-94
2022/04/19 13:40:47;;;;;;;1.17;0.35;;;;;;;;;;6294822;22;20028;-91
2022/04/19 13:43:13;;;;;;;0.20;0.20;;;;;;;;;;6268196;22;20022;-92
2022/04/19 13:45:39;;;;;;;6.13;0.35;;;;;;;;;;6262341;22;20015;-90
2022/04/19 13:48:05;;;;;;;0.63;0.52;;;;;;;;;;6262367;22;20428;-89
2022/04/19 13:50:35;;;;;;;0.28;0.28;;;;;;;;;;6262533;22;20444;-90
2022/04/19 13:53:04;;;;;;;1.02;0.65;;;;;;;;;;6260246;22;20026;-91
2022/04/19 13:55:30;;;;;;;1.65;0.85;;;;;;;;;;6263152;22;20019;-90
2022/04/19 13:57:56;;;;;;;0.45;0.30;;;;;;;;;;6268267;22;20097;-92
2022/04/19 14:00:26;;;;;;;0.80;0.57;;;;;;;;;;6268435;22;20015;-91
2022/04/19 14:02:53;;;;;;;0.45;0.22;;;;;;;;;;6265395;22;20030;-90
2022/04/19 14:05:19;;;;;;;0.17;0.17;;;;;;;;;;6263067;22;20022;-89
2022/04/19 14:07:45;;;;;;;1.33;1.00;;;;;;;;;;6264957;22;20015;-93
2022/04/19 14:10:11;;;;;;;0.90;0.68;;;;;;;;;;6271248;22;20066;-95
2022/04/19 14:12:37;;;;;;;1.02;0.65;;;;;;;;;;6269073;22;20019;-93
2022/04/19 14:15:04;;;;;;;0.38;0.38;;;;;;;;;;6268907;22;20019;-90
2022/04/19 14:17:30;;;;;;;0.40;0.30;;;;;;;;;;6265877;22;20019;-90
2022/04/19 14:19:56;;;;;;;0.38;0.38;;;;;;;;;;6263720;22;20015;-90
2022/04/19 14:22:24;;;;;;;1.45;0.77;;;;;;;;;;6264537;22;20045;-89
2022/04/19 14:24:50;;;;;;;0.50;0.40;;;;;;;;;;6262870;22;20015;-92
2022/04/19 14:27:16;;;;;;;1.25;0.57;;;;;;;;;;6296382;22;20011;-94
2022/04/19 14:35:11;;;;;;;2.88;1.08;;;;;;;;;;6288209;22;20537;-90
2022/04/19 14:37:37;;;;;;;1.02;0.68;;;;;;;;;;6266518;22;20456;-90
2022/04/19 14:40:04;;;;;;;0.08;0.08;;;;;;;;;;6266344;22;20094;-88
2022/04/19 14:42:30;;;;;;;1.27;0.63;;;;;;;;;;6265479;22;20019;-92
2022/04/19 14:44:56;;;;;;;0.43;0.20;;;;;;;;;;6265641;22;20038;-91
2022/04/19 14:47:22;;;;;;;0.82;0.30;;;;;;;;;;6264256;22;20015;-90
2022/04/19 14:49:48;;;;;;;0.38;0.32;;;;;;;;;;6264357;22;20022;-91
2022/04/19 14:52:16;;;;;;;0.10;0.10;;;;;;;;;;6265260;22;20112;-91
2022/04/19 14:54:42;;;;;;;2.45;1.48;;;;;;;;;;6264438;22;20435;-90
2022/04/19 14:57:08;;;;;;;6.60;1.85;;;;;;;;;;6263121;22;20428;-91
2022/04/19 14:59:34;;;;;;;0.90;0.55;;;;;;;;;;6269905;22;20023;-91
2022/04/19 15:02:00;;;;;;;0.10;0.10;;;;;;;;;;6270005;22;20086;-91
2022/04/19 15:04:26;;;;;;;1.02;0.47;;;;;;;;;;6268527;22;20019;-90
2022/04/19 15:06:53;;;;;;;0.93;0.60;;;;;;;;;;6267104;22;20018;-90
2022/04/19 15:09:19;;;;;;;1.15;0.70;;;;;;;;;;6271147;22;20022;-93
2022/04/19 15:11:45;;;;;;;1.27;0.68;;;;;;;;;;6271201;22;20058;-92
2022/04/19 15:14:11;;;;;;;0.40;0.35;;;;;;;;;;6269535;22;20019;-92
2022/04/19 15:16:37;;;;;;;0.25;0.25;;;;;;;;;;6266569;22;20604;-91
2022/04/19 15:19:04;;;;;;;1.40;0.50;;;;;;;;;;6270501;22;20030;-92
2022/04/19 15:21:30;;;;;;;0.10;0.10;;;;;;;;;;6271413;22;20102;-94
2022/04/19 15:23:56;;;;;;;1.40;0.40;;;;;;;;;;6267574;22;20015;-93
2022/04/19 15:26:26;;;;;;;2.95;0.75;;;;;;;;;;6246044;22;20030;-90
2022/04/19 15:28:52;;;;;;;0.38;0.30;;;;;;;;;;6271006;22;20015;-94
2022/04/19 15:31:18;;;;;;;0.60;0.35;;;;;;;;;;6297248;22;20026;-94
2022/04/19 15:33:48;;;;;;;0.68;0.40;;;;;;;;;;6293595;22;20019;-89
2022/04/19 15:36:16;;;;;;;0.10;0.10;;;;;;;;;;6266729;22;20019;-93
2022/04/19 15:38:42;;;;;;;1.58;0.80;;;;;;;;;;6288020;22;20019;-90
2022/04/19 15:41:11;;;;;;;0.40;0.20;;;;;;;;;;6292045;22;20021;-92